Time;durP1;ratioP1;P1;durP2;ratioP2;P2;SDS_P1;SDS_P2;PMS_P1;PMS_P2;Temp;Humidity;BMP_temperature;BMP_pressure;BME280_temperature;BME280_humidity;BME280_pressure;Samples;Min_cycle;Max_cycle;Signal;HPM_P1;HPM_P2
2023/10/09 00:00:55;;;;;;;2.20;2.00;;;;;;;9.42;100.00;98668.38;6135567;28;20239;-58
2023/10/09 00:04:01;;;;;;;4.40;2.97;;;;;;;9.42;100.00;98659.59;6123433;28;20306;-59
2023/10/09 00:07:07;;;;;;;4.07;2.90;;;;;;;9.42;100.00;98651.63;6125970;28;20315;-59
2023/10/09 00:10:12;;;;;;;2.77;2.30;;;;;;;9.41;100.00;98650.81;6112358;28;20233;-58
2023/10/09 00:13:15;;;;;;;2.97;2.40;;;;;;;9.43;100.00;98647.91;6125561;28;20244;-58
2023/10/09 00:16:46;;;;;;;3.40;2.10;;;;;;;9.43;100.00;98653.25;6124042;28;20252;-55
2023/10/09 00:19:51;;;;;;;2.53;2.30;;;;;;;9.40;100.00;98648.31;6137892;28;20336;-58
2023/10/09 00:22:56;;;;;;;3.47;2.67;;;;;;;9.37;100.00;98654.91;6123942;28;20324;-58
2023/10/09 00:26:16;;;;;;;3.10;2.70;;;;;;;9.34;100.00;98646.50;6120820;28;20241;-57
2023/10/09 00:29:34;;;;;;;3.83;2.50;;;;;;;9.13;100.00;98616.53;6126016;28;20277;-58
2023/10/09 00:32:37;;;;;;;2.87;2.53;;;;;;;9.24;100.00;98636.31;6111269;28;20336;-59
2023/10/09 00:35:54;;;;;;;4.23;2.90;;;;;;;9.30;100.00;98641.59;6121457;28;20237;-58
2023/10/09 00:39:00;;;;;;;3.33;2.80;;;;;;;9.23;100.00;98624.88;6123790;28;20237;-58
2023/10/09 00:42:06;;;;;;;2.40;2.00;;;;;;;9.36;100.00;98641.78;6121871;28;20232;-59
2023/10/09 00:45:10;;;;;;;3.50;2.80;;;;;;;9.35;100.00;98630.34;6121594;28;20308;-58
2023/10/09 00:48:23;;;;;;;2.77;2.33;;;;;;;9.35;100.00;98624.22;6137757;28;20225;-59
2023/10/09 00:51:26;;;;;;;3.57;2.73;;;;;;;9.29;100.00;98607.25;6124484;28;20234;-59
2023/10/09 00:54:40;;;;;;;3.37;2.80;;;;;;;9.37;100.00;98609.69;6117748;28;20241;-58
2023/10/09 00:57:59;;;;;;;2.83;2.43;;;;;;;9.36;100.00;98600.09;6133793;28;20248;-59
2023/10/09 01:01:04;;;;;;;3.80;2.60;;;;;;;9.32;100.00;98593.56;6118867;28;20252;-58
2023/10/09 01:04:29;;;;;;;4.77;3.03;;;;;;;9.28;100.00;98595.81;6127880;28;20222;-59
2023/10/09 01:07:31;;;;;;;3.40;2.50;;;;;;;9.20;100.00;98582.75;6123583;28;20240;-58
2023/10/09 01:10:51;;;;;;;3.33;2.83;;;;;;;9.20;100.00;98589.91;6121640;28;20246;-59
2023/10/09 01:13:53;;;;;;;2.57;2.37;;;;;;;9.18;100.00;98589.31;6111735;28;20358;-59
2023/10/09 01:16:56;;;;;;;2.60;2.40;;;;;;;9.20;100.00;98585.41;6123653;28;20296;-59
2023/10/09 01:20:03;;;;;;;3.30;2.60;;;;;;;9.24;100.00;98575.16;6121860;28;20242;-59
2023/10/09 01:23:07;;;;;;;2.57;2.20;;;;;;;9.23;100.00;98570.88;6119368;28;20267;-59
2023/10/09 01:26:10;;;;;;;3.10;2.20;;;;;;;9.20;100.00;98572.09;6119967;28;20233;-59
2023/10/09 01:29:14;;;;;;;2.57;2.37;;;;;;;9.23;100.00;98569.03;6137012;28;20233;-58
2023/10/09 01:32:19;;;;;;;3.50;2.30;;;;;;;9.27;100.00;98567.59;6117944;28;20324;-58
2023/10/09 01:35:21;;;;;;;2.67;2.33;;;;;;;9.30;100.00;98563.69;6147976;28;20228;-59
2023/10/09 01:38:40;;;;;;;2.53;2.00;;;;;;;9.30;100.00;98558.38;6129638;28;20320;-58
2023/10/09 01:41:46;;;;;;;2.43;2.20;;;;;;;9.28;100.00;98553.28;6114135;28;20592;-58
2023/10/09 01:44:50;;;;;;;3.00;2.50;;;;;;;9.22;100.00;98545.34;6123605;28;20295;-56
2023/10/09 01:47:56;;;;;;;2.50;2.30;;;;;;;9.26;100.00;98552.69;6118094;28;20707;-58
2023/10/09 01:51:00;;;;;;;2.57;2.37;;;;;;;9.24;100.00;98543.25;6119957;28;20236;-58
2023/10/09 01:54:03;;;;;;;3.70;2.50;;;;;;;9.26;100.00;98549.19;6121645;28;20238;-56
2023/10/09 01:57:10;;;;;;;3.33;2.27;;;;;;;9.25;100.00;98543.03;6121193;28;20257;-59
2023/10/09 02:00:16;;;;;;;4.03;3.07;;;;;;;9.25;100.00;98553.69;6137251;28;20281;-59
2023/10/09 02:03:22;;;;;;;3.80;2.80;;;;;;;9.24;100.00;98545.94;6119227;28;20223;-58
2023/10/09 02:06:26;;;;;;;3.23;2.43;;;;;;;9.14;100.00;98518.97;6122408;28;20232;-59
2023/10/09 02:09:31;;;;;;;3.27;2.40;;;;;;;9.24;100.00;98529.97;6124837;28;20224;-59
2023/10/09 02:12:34;;;;;;;2.57;2.37;;;;;;;9.24;100.00;98525.47;6121537;28;20279;-59
2023/10/09 02:18:55;;;;;;;2.50;2.30;;;;;;;9.27;100.00;98519.75;6132538;28;20249;-58
2023/10/09 02:21:58;;;;;;;2.63;2.20;;;;;;;9.29;100.00;98512.34;6136037;28;20236;-59
2023/10/09 02:25:05;;;;;;;2.60;2.40;;;;;;;9.29;100.00;98496.41;6136877;28;20262;-58
2023/10/09 02:28:07;;;;;;;3.90;2.70;;;;;;;9.24;100.00;98472.28;6118660;28;20245;-59
2023/10/09 02:31:11;;;;;;;4.60;2.27;;;;;;;9.21;100.00;98479.88;6131823;28;20685;-56
2023/10/09 02:34:15;;;;;;;4.33;2.60;;;;;;;9.13;100.00;98475.63;6122914;28;20304;-57
2023/10/09 02:37:23;;;;;;;3.03;2.50;;;;;;;9.16;100.00;98477.03;6120912;28;20252;-59
2023/10/09 02:40:33;;;;;;;2.63;2.33;;;;;;;9.15;100.00;98470.09;6134789;28;20241;-59
2023/10/09 02:43:50;;;;;;;3.27;2.40;;;;;;;9.13;100.00;98475.63;6118712;28;20245;-59
2023/10/09 02:46:57;;;;;;;2.90;2.30;;;;;;;9.17;100.00;98470.72;6139635;28;20242;-56
2023/10/09 02:50:07;;;;;;;4.13;2.50;;;;;;;9.11;100.00;98455.59;6128668;28;20696;-58
2023/10/09 02:53:18;;;;;;;2.57;2.20;;;;;;;9.08;100.00;98448.06;6127166;28;20253;-58
2023/10/09 02:56:43;;;;;;;2.63;2.20;;;;;;;9.12;100.00;98443.97;6120709;28;20225;-59
2023/10/09 02:59:44;;;;;;;2.73;2.43;;;;;;;9.11;100.00;98451.09;6133593;28;20654;-58
2023/10/09 03:02:49;;;;;;;2.40;2.10;;;;;;;9.08;100.00;98446.22;6116194;28;20245;-58
2023/10/09 03:05:52;;;;;;;2.80;2.40;;;;;;;9.10;100.00;98448.66;6123338;28;20226;-58
2023/10/09 03:08:54;;;;;;;3.50;2.53;;;;;;;9.11;100.00;98439.66;6107224;28;20240;-59
2023/10/09 03:12:11;;;;;;;2.57;2.00;;;;;;;9.09;100.00;98436.41;6137428;28;20275;-58
2023/10/09 03:15:14;;;;;;;2.80;2.40;;;;;;;9.08;100.00;98432.94;6116446;28;20337;-59
2023/10/09 03:18:16;;;;;;;2.10;1.90;;;;;;;9.06;100.00;98424.34;6126138;28;20233;-59
2023/10/09 03:21:19;;;;;;;3.00;2.60;;;;;;;9.04;100.00;98427.22;6113132;28;20252;-59
2023/10/09 03:24:22;;;;;;;2.70;2.37;;;;;;;8.94;100.00;98397.66;6119979;28;20582;-59
2023/10/09 03:27:25;;;;;;;3.80;2.60;;;;;;;9.00;100.00;98404.75;6120878;28;20236;-58
2023/10/09 03:30:27;;;;;;;4.70;2.40;;;;;;;8.99;100.00;98405.78;6127369;28;20237;-58
2023/10/09 03:33:32;;;;;;;3.80;2.63;;;;;;;8.94;100.00;98400.31;6126895;28;20227;-58
2023/10/09 03:36:38;;;;;;;3.10;2.67;;;;;;;8.91;100.00;98398.06;6127789;28;20231;-58
2023/10/09 03:39:47;;;;;;;5.00;2.80;;;;;;;8.89;100.00;98394.81;6124545;28;20263;-59
2023/10/09 03:42:49;;;;;;;2.73;2.30;;;;;;;8.86;100.00;98381.94;6121579;28;20250;-56
2023/10/09 03:45:57;;;;;;;5.07;2.50;;;;;;;8.85;100.00;98375.00;6125627;28;20227;-57
2023/10/09 03:49:10;;;;;;;3.40;2.53;;;;;;;8.82;100.00;98372.78;6121172;28;20231;-57
2023/10/09 03:52:17;;;;;;;5.33;2.97;;;;;;;8.75;100.00;98358.72;6128903;28;20268;-58
2023/10/09 03:55:21;;;;;;;3.93;2.43;;;;;;;8.69;100.00;98349.75;6126589;28;20247;-58
2023/10/09 03:58:25;;;;;;;3.07;2.63;;;;;;;8.64;100.00;98354.91;6120252;28;20246;-59
2023/10/09 04:01:28;;;;;;;3.67;2.83;;;;;;;8.62;100.00;98351.66;6137558;28;20252;-59
2023/10/09 04:04:33;;;;;;;3.83;3.00;;;;;;;8.62;100.00;98350.81;6127713;28;20227;-58
2023/10/09 04:07:36;;;;;;;3.90;3.00;;;;;;;8.62;100.00;98345.50;6126005;28;20712;-58
2023/10/09 04:10:50;;;;;;;7.00;3.77;;;;;;;8.64;100.00;98349.59;6139188;28;20322;-58
2023/10/09 04:13:59;;;;;;;3.60;3.20;;;;;;;8.64;100.00;98343.47;6127844;28;20229;-59
2023/10/09 04:17:32;;;;;;;3.23;2.73;;;;;;;8.63;100.00;98333.88;6118109;28;20607;-59
2023/10/09 04:23:59;;;;;;;4.63;3.43;;;;;;;8.35;100.00;98300.47;6122170;28;20238;-59
2023/10/09 04:26:59;;;;;;;3.17;2.87;;;;;;;8.50;100.00;98300.22;6125308;28;20244;-56
2023/10/09 04:30:01;;;;;;;4.67;3.30;;;;;;;8.45;100.00;98290.25;6123876;28;20790;-59
2023/10/09 04:33:11;;;;;;;3.00;2.70;;;;;;;8.47;100.00;98292.69;6123818;28;20789;-58
2023/10/09 04:36:22;;;;;;;3.77;3.20;;;;;;;8.47;100.00;98300.63;6122387;28;20226;-58
2023/10/09 04:42:37;;;;;;;4.10;3.10;;;;;;;8.49;100.00;98302.06;6118360;28;20242;-55
2023/10/09 04:46:07;;;;;;;5.83;2.70;;;;;;;8.49;100.00;98293.28;6115491;28;20340;-59
2023/10/09 04:49:28;;;;;;;4.80;3.00;;;;;;;8.50;100.00;98287.75;6120952;28;20237;-58
2023/10/09 04:55:38;;;;;;;2.73;2.43;;;;;;;8.57;100.00;98281.59;6124106;28;20755;-57
2023/10/09 04:58:40;;;;;;;2.83;2.43;;;;;;;8.60;100.00;98273.22;6123965;28;20313;-58
2023/10/09 05:01:57;;;;;;;3.80;3.10;;;;;;;8.58;100.00;98270.78;6127453;28;20243;-58
2023/10/09 05:05:47;;;;;;;3.10;2.77;;;;;;;8.60;100.00;98266.06;6128051;28;20613;-59
2023/10/09 05:08:45;;;;;;;5.20;2.90;;;;;;;8.63;100.00;98257.66;6123498;28;20251;-58
2023/10/09 05:15:09;;;;;;;3.43;2.83;;;;;;;8.64;100.00;98248.66;6120913;28;20252;-59
2023/10/09 05:18:16;;;;;;;3.53;2.70;;;;;;;8.64;100.00;98240.69;6120265;28;20682;-59
2023/10/09 05:24:43;;;;;;;3.03;2.73;;;;;;;8.60;100.00;98223.56;6128886;28;20244;-57
2023/10/09 05:27:50;;;;;;;4.37;2.90;;;;;;;8.58;100.00;98211.53;6126848;28;20226;-57
2023/10/09 05:31:07;;;;;;;5.40;3.17;;;;;;;8.55;100.00;98211.97;6117774;28;20241;-58
2023/10/09 05:34:12;;;;;;;4.10;3.07;;;;;;;8.48;100.00;98207.53;6117463;28;20227;-57
2023/10/09 05:37:22;;;;;;;3.93;3.20;;;;;;;8.44;100.00;98200.19;6120963;28;20248;-59
2023/10/09 05:40:43;;;;;;;6.47;3.40;;;;;;;8.41;100.00;98190.81;6175443;28;20314;-57
2023/10/09 05:47:31;;;;;;;3.47;3.07;;;;;;;8.24;100.00;98174.56;6169553;28;20232;-59
2023/10/09 05:50:34;;;;;;;4.07;2.83;;;;;;;8.34;100.00;98199.81;6182497;28;20291;-56
2023/10/09 05:57:44;;;;;;;4.17;3.10;;;;;;;8.34;100.00;98178.59;6190524;28;20284;-60
2023/10/09 06:03:53;;;;;;;6.03;3.77;;;;;;;8.25;100.00;98186.81;6191034;28;20234;-59
2023/10/09 06:06:56;;;;;;;4.73;3.47;;;;;;;8.25;100.00;98188.66;6192776;28;20236;-57
2023/10/09 06:10:10;;;;;;;4.10;3.40;;;;;;;8.27;100.00;98173.31;6204804;28;20328;-58
2023/10/09 06:13:37;;;;;;;3.70;3.23;;;;;;;8.26;100.00;98166.38;6197763;28;20232;-58
2023/10/09 06:19:43;;;;;;;5.60;3.43;;;;;;;8.31;100.00;98163.09;6196181;28;20247;-59
2023/10/09 06:22:57;;;;;;;5.17;3.53;;;;;;;8.34;100.00;98152.84;6193359;28;20228;-57
2023/10/09 06:26:23;;;;;;;5.13;4.10;;;;;;;8.37;100.00;98146.31;6200168;28;20221;-56
2023/10/09 06:29:35;;;;;;;5.17;4.00;;;;;;;8.40;100.00;98138.75;6188604;28;20217;-58
2023/10/09 06:32:37;;;;;;;5.17;3.70;;;;;;;8.34;100.00;98123.66;6186873;28;20248;-57
2023/10/09 06:35:48;;;;;;;4.27;3.60;;;;;;;8.45;100.00;98133.59;6179884;28;20810;-58
2023/10/09 06:39:50;;;;;;;5.83;3.87;;;;;;;8.60;100.00;98133.28;6191043;28;21795;-59
2023/10/09 06:45:45;;;;;;;4.53;3.77;;;;;;;8.82;100.00;98141.66;6192960;28;20224;-56
2023/10/09 06:48:56;;;;;;;5.53;3.90;;;;;;;8.95;100.00;98136.19;6189413;28;20232;-57
2023/10/09 06:52:15;;;;;;;4.97;3.80;;;;;;;9.05;100.00;98131.19;6194265;28;20241;-59
2023/10/09 06:55:19;;;;;;;6.50;3.43;;;;;;;9.16;100.00;98121.69;6191728;28;20237;-58
2023/10/09 06:59:13;;;;;;;4.60;3.20;;;;;;;9.24;100.00;98121.38;6193064;28;20243;-58
2023/10/09 07:02:11;;;;;;;4.27;3.07;;;;;;;9.33;100.00;98113.91;6177733;28;20233;-57
2023/10/09 07:05:10;;;;;;;4.77;3.27;;;;;;;9.40;100.00;98100.53;6191973;28;20245;-58
2023/10/09 07:09:15;;;;;;;4.43;3.00;;;;;;;9.45;100.00;98101.47;6181028;28;20695;-58
2023/10/09 07:18:18;;;;;;;3.70;3.10;;;;;;;9.57;100.00;98089.06;6203570;28;20761;-58
2023/10/09 07:21:27;;;;;;;3.70;2.80;;;;;;;9.63;100.00;98102.50;6196968;28;20259;-58
2023/10/09 07:28:03;;;;;;;4.93;2.73;;;;;;;9.81;100.00;98111.25;6182994;28;20612;-58
2023/10/09 07:31:08;;;;;;;7.03;3.40;;;;;;;9.87;100.00;98104.22;6194959;28;20608;-57
2023/10/09 07:34:31;;;;;;;3.70;2.50;;;;;;;9.96;100.00;98099.38;6194093;28;20231;-55
2023/10/09 07:37:35;;;;;;;5.00;2.73;;;;;;;10.02;100.00;98099.28;6198115;28;20649;-59
2023/10/09 07:44:18;;;;;;;3.27;2.43;;;;;;;10.09;100.00;98076.03;6196288;28;20762;-58
2023/10/09 07:47:45;;;;;;;4.77;2.77;;;;;;;10.13;100.00;98076.38;6201737;28;20641;-58
2023/10/09 07:50:49;;;;;;;3.40;2.43;;;;;;;10.28;100.00;98087.44;6190088;28;20301;-58
2023/10/09 07:54:06;;;;;;;3.20;2.53;;;;;;;10.31;100.00;98079.00;6198743;28;20254;-59
2023/10/09 07:57:15;;;;;;;2.57;2.30;;;;;;;10.45;100.00;98087.59;6196308;28;20284;-58
2023/10/09 08:00:36;;;;;;;2.70;2.20;;;;;;;10.48;100.00;98076.44;6196644;28;20228;-57
2023/10/09 08:03:38;;;;;;;6.10;2.03;;;;;;;10.65;100.00;98078.44;6200983;28;20239;-59
2023/10/09 08:06:44;;;;;;;2.97;2.50;;;;;;;10.69;100.00;98071.56;6200005;28;20235;-58
2023/10/09 08:13:49;;;;;;;3.37;2.10;;;;;;;10.83;100.00;98062.31;6192038;28;20604;-59
2023/10/09 08:16:42;;;;;;;3.37;2.40;;;;;;;10.89;100.00;98053.38;6189851;28;20244;-59
2023/10/09 08:19:54;;;;;;;3.97;2.53;;;;;;;10.85;100.00;98028.25;6179694;28;20243;-60
2023/10/09 08:22:57;;;;;;;5.37;2.33;;;;;;;11.10;100.00;98054.63;6193318;28;20371;-57
2023/10/09 08:26:28;;;;;;;4.43;2.00;;;;;;;11.10;100.00;98044.75;6199240;28;20335;-61
2023/10/09 08:29:34;;;;;;;3.33;2.37;;;;;;;11.30;100.00;98052.34;6197840;28;20377;-58
2023/10/09 08:32:42;;;;;;;2.70;2.17;;;;;;;11.42;100.00;98056.81;6174651;28;20239;-58
2023/10/09 08:35:50;;;;;;;3.83;2.40;;;;;;;11.47;100.00;98031.06;6183298;28;20638;-57
2023/10/09 08:38:58;;;;;;;5.00;2.10;;;;;;;11.76;100.00;98042.50;6187948;28;20629;-59
2023/10/09 08:42:01;;;;;;;3.07;2.30;;;;;;;11.89;100.00;98054.78;6192112;28;20241;-57
2023/10/09 08:45:07;;;;;;;4.80;2.43;;;;;;;11.98;100.00;98033.84;6193170;28;20594;-58
2023/10/09 08:48:17;;;;;;;2.70;2.30;;;;;;;12.20;100.00;98039.28;6197863;28;20217;-56
2023/10/09 08:51:20;;;;;;;3.83;2.83;;;;;;;12.46;100.00;98046.59;6193272;28;20228;-61
2023/10/09 08:54:22;;;;;;;4.17;2.40;;;;;;;12.69;100.00;98045.63;6194747;28;20232;-59
2023/10/09 08:57:27;;;;;;;5.37;2.27;;;;;;;12.89;100.00;98039.72;6190293;28;20229;-57
2023/10/09 09:00:33;;;;;;;3.57;2.63;;;;;;;13.11;100.00;98021.84;6189572;28;20302;-58
2023/10/09 09:03:40;;;;;;;3.00;2.20;;;;;;;13.30;100.00;98022.34;6195211;28;20726;-59
2023/10/09 09:06:42;;;;;;;5.17;2.67;;;;;;;13.54;100.00;98014.81;6192403;28;20599;-58
2023/10/09 09:10:17;;;;;;;7.67;3.37;;;;;;;13.86;100.00;98014.88;6199787;28;20228;-58
2023/10/09 09:13:20;;;;;;;8.27;3.63;;;;;;;14.23;100.00;98022.13;6181885;28;20239;-57
2023/10/09 09:16:29;;;;;;;14.27;4.20;;;;;;;14.75;100.00;98005.34;6186924;28;20233;-58
2023/10/09 09:19:32;;;;;;;12.17;4.03;;;;;;;15.42;98.06;97999.16;6192462;28;20240;-58
2023/10/09 09:22:52;;;;;;;17.73;4.90;;;;;;;16.00;92.59;97999.78;6193012;28;20378;-59
2023/10/09 09:26:03;;;;;;;13.57;4.20;;;;;;;16.32;93.47;97998.69;6198836;28;20240;-59
2023/10/09 09:29:06;;;;;;;9.60;3.97;;;;;;;16.57;86.08;97986.28;6196713;28;20597;-56
2023/10/09 09:32:22;;;;;;;14.73;3.83;;;;;;;16.87;81.68;97988.91;6194833;28;20315;-59
2023/10/09 09:35:27;;;;;;;11.80;3.93;;;;;;;17.22;83.48;98011.38;6193181;28;20229;-58
2023/10/09 09:38:50;;;;;;;10.30;4.07;;;;;;;17.54;73.44;97997.47;6193697;28;20220;-58
2023/10/09 09:41:57;;;;;;;14.90;4.40;;;;;;;17.98;70.50;97999.31;6188727;28;20233;-58
2023/10/09 09:45:02;;;;;;;8.97;4.10;;;;;;;18.02;72.01;97990.41;6193487;28;20233;-58
2023/10/09 09:48:06;;;;;;;14.30;4.17;;;;;;;18.25;65.61;97996.94;6174325;28;20217;-57
2023/10/09 09:51:08;;;;;;;10.03;3.83;;;;;;;18.27;74.26;98020.94;6193654;28;20214;-58
2023/10/09 09:54:15;;;;;;;11.70;4.17;;;;;;;18.30;68.29;98004.19;6194113;28;20204;-58
2023/10/09 09:57:25;;;;;;;14.67;4.10;;;;;;;18.35;74.07;98004.16;6199492;28;20220;-58
2023/10/09 10:00:42;;;;;;;8.93;4.00;;;;;;;18.28;74.86;98014.47;6194753;28;22170;-59
2023/10/09 10:03:53;;;;;;;14.70;4.30;;;;;;;18.35;72.42;98008.75;6191163;28;20242;-58
2023/10/09 10:07:09;;;;;;;14.30;3.50;;;;;;;18.52;68.86;98011.78;6192930;28;20256;-59
2023/10/09 10:10:55;;;;;;;8.77;3.70;;;;;;;18.87;67.12;98007.16;6190562;28;20232;-58
2023/10/09 10:14:31;;;;;;;11.73;3.50;;;;;;;18.84;70.18;98011.22;6190356;28;20233;-57
2023/10/09 10:17:59;;;;;;;10.17;3.77;;;;;;;19.00;67.60;98020.75;6191134;28;20232;-58
2023/10/09 10:21:14;;;;;;;15.87;4.30;;;;;;;19.44;63.58;98016.97;6196178;28;20248;-57
2023/10/09 10:24:30;;;;;;;12.77;3.90;;;;;;;19.52;59.35;98018.22;6199647;28;20704;-57
2023/10/09 10:27:44;;;;;;;9.73;3.20;;;;;;;19.61;62.06;98026.53;6188908;28;20223;-58
2023/10/09 10:30:47;;;;;;;12.20;4.27;;;;;;;19.84;58.41;98031.81;6188812;28;20776;-58
2023/10/09 10:33:55;;;;;;;11.57;3.27;;;;;;;19.77;57.84;98036.81;6188950;28;20364;-58
2023/10/09 10:37:00;;;;;;;9.43;3.70;;;;;;;19.88;52.87;98026.66;6191216;28;20244;-59
2023/10/09 10:40:13;;;;;;;14.13;4.30;;;;;;;19.85;54.42;98029.91;6190394;28;20262;-57
2023/10/09 10:43:32;;;;;;;7.97;3.20;;;;;;;20.01;49.64;98022.41;6198336;28;20241;-58
2023/10/09 10:46:44;;;;;;;9.83;3.70;;;;;;;19.94;53.16;98032.78;6197497;28;20318;-59
2023/10/09 10:49:49;;;;;;;12.07;3.43;;;;;;;19.81;53.76;98042.44;6186713;28;20238;-59
2023/10/09 10:52:57;;;;;;;7.80;3.07;;;;;;;20.15;50.76;98034.09;6187704;28;20230;-59
2023/10/09 10:59:22;;;;;;;8.40;3.27;;;;;;;20.10;49.43;98031.47;6191162;28;20264;-59
2023/10/09 11:02:27;;;;;;;11.17;3.87;;;;;;;20.16;49.54;98029.47;6191988;28;20244;-59
2023/10/09 11:05:38;;;;;;;12.80;3.87;;;;;;;19.99;52.90;98048.91;6192989;28;20236;-57
2023/10/09 11:09:08;;;;;;;9.97;3.30;;;;;;;19.96;51.98;98044.91;6196127;28;20219;-59
2023/10/09 11:12:21;;;;;;;11.27;3.70;;;;;;;19.78;53.91;98038.41;6193391;28;20216;-59
2023/10/09 11:15:43;;;;;;;8.87;3.97;;;;;;;19.79;53.24;98031.91;6189201;28;20229;-59
2023/10/09 11:18:46;;;;;;;8.57;3.27;;;;;;;19.57;56.21;98039.78;6192688;28;20225;-56
2023/10/09 11:21:58;;;;;;;5.77;3.23;;;;;;;19.50;56.31;98045.53;6194194;28;20285;-59
2023/10/09 11:25:11;;;;;;;15.30;4.20;;;;;;;19.41;56.66;98031.06;6194678;28;20582;-58
2023/10/09 11:28:29;;;;;;;11.33;3.90;;;;;;;19.26;56.95;98032.06;6197826;28;20719;-57
2023/10/09 11:31:33;;;;;;;16.17;3.97;;;;;;;19.07;59.51;98031.22;6198603;28;20697;-58
2023/10/09 11:34:37;;;;;;;13.40;3.93;;;;;;;18.85;59.87;98039.81;6191209;28;20854;-59
2023/10/09 11:37:42;;;;;;;10.40;3.67;;;;;;;18.75;61.43;98046.13;6192153;28;20731;-58
2023/10/09 11:41:05;;;;;;;10.37;3.40;;;;;;;18.68;61.10;98048.38;6188529;28;20239;-59
2023/10/09 11:44:18;;;;;;;12.00;3.87;;;;;;;18.66;63.89;98034.31;6195120;28;20234;-59
2023/10/09 11:50:53;;;;;;;10.13;3.63;;;;;;;18.27;65.40;98064.09;6194872;28;20232;-56
2023/10/09 11:53:58;;;;;;;9.47;3.37;;;;;;;18.15;65.33;98072.53;6195539;28;20229;-59
2023/10/09 11:57:03;;;;;;;13.40;3.80;;;;;;;18.10;66.20;98058.31;6191541;28;20232;-59
2023/10/09 12:00:25;;;;;;;9.70;3.87;;;;;;;17.85;67.15;98051.19;6193314;28;20237;-58
2023/10/09 12:03:29;;;;;;;11.53;3.83;;;;;;;17.56;70.95;98043.78;6194900;28;20255;-58
2023/10/09 12:06:35;;;;;;;10.30;4.30;;;;;;;17.38;72.39;98053.28;6195416;28;20233;-59
2023/10/09 12:09:37;;;;;;;8.13;3.47;;;;;;;17.24;76.08;98054.97;6195948;28;20232;-59
2023/10/09 12:12:46;;;;;;;12.17;4.50;;;;;;;17.12;80.03;98084.09;6191168;28;20232;-58
2023/10/09 12:15:52;;;;;;;11.30;4.63;;;;;;;17.02;80.54;98058.03;6196912;28;20237;-58
2023/10/09 12:18:55;;;;;;;12.07;4.60;;;;;;;16.90;84.23;98017.16;6201677;28;20237;-56
2023/10/09 12:22:00;;;;;;;10.97;4.67;;;;;;;16.87;89.31;98037.34;6188529;28;20244;-58
2023/10/09 12:25:09;;;;;;;12.37;5.07;;;;;;;16.90;87.39;98026.03;6194153;28;20236;-59
2023/10/09 12:28:12;;;;;;;11.83;4.27;;;;;;;17.04;87.71;98058.53;6196437;28;20712;-57
2023/10/09 12:31:15;;;;;;;12.40;4.87;;;;;;;17.10;82.83;98072.81;6192627;28;20383;-57
2023/10/09 12:34:17;;;;;;;16.63;5.30;;;;;;;17.00;84.90;98069.06;6179055;28;20243;-58
2023/10/09 12:37:20;;;;;;;11.67;4.13;;;;;;;16.92;85.71;98055.34;6198074;28;20573;-59
2023/10/09 12:40:24;;;;;;;11.00;4.80;;;;;;;16.80;85.90;98082.56;6194588;28;20744;-57
2023/10/09 12:43:27;;;;;;;9.77;5.07;;;;;;;16.67;89.02;98029.28;6194309;28;20233;-56
2023/10/09 12:46:37;;;;;;;9.93;4.90;;;;;;;16.56;87.90;97990.06;6186882;28;20267;-56
2023/10/09 12:49:40;;;;;;;12.27;4.80;;;;;;;16.63;87.95;98033.59;6193156;28;20375;-59
2023/10/09 12:52:43;;;;;;;11.07;4.90;;;;;;;16.60;84.89;98063.72;6194536;28;20235;-58
2023/10/09 12:55:45;;;;;;;19.53;5.17;;;;;;;16.54;85.08;98071.00;6194768;28;20224;-59
2023/10/09 12:58:53;;;;;;;12.03;5.20;;;;;;;16.39;88.66;98036.84;6187990;28;20232;-56
2023/10/09 13:01:58;;;;;;;12.87;5.23;;;;;;;16.32;88.93;98043.59;6173223;28;20271;-58
2023/10/09 13:05:03;;;;;;;12.20;4.37;;;;;;;16.24;89.33;98034.97;6188318;28;20225;-58
2023/10/09 13:08:06;;;;;;;9.77;5.47;;;;;;;16.20;93.17;98016.97;6190840;28;20311;-59
2023/10/09 13:11:16;;;;;;;10.97;4.67;;;;;;;16.06;99.59;98022.09;6187998;28;20232;-59
2023/10/09 13:14:21;;;;;;;12.40;5.03;;;;;;;15.98;98.98;98004.63;6188804;28;20248;-58
2023/10/09 13:17:27;;;;;;;12.43;5.07;;;;;;;15.92;98.81;98024.50;6198813;28;20858;-58
2023/10/09 13:20:29;;;;;;;11.37;5.53;;;;;;;15.93;100.00;98009.19;6177604;28;20236;-57
2023/10/09 13:23:46;;;;;;;8.90;4.87;;;;;;;15.95;100.00;97990.91;6196150;28;20236;-58
2023/10/09 13:26:57;;;;;;;14.47;5.73;;;;;;;15.81;100.00;98009.47;6200941;28;20318;-59
2023/10/09 13:30:05;;;;;;;7.13;4.80;;;;;;;15.63;100.00;97993.81;6188777;28;20768;-59
2023/10/09 13:33:07;;;;;;;11.07;5.00;;;;;;;15.66;100.00;98034.44;6189112;28;20235;-59
2023/10/09 13:36:19;;;;;;;8.37;4.60;;;;;;;15.66;100.00;98022.84;6195338;28;20235;-59
2023/10/09 13:39:24;;;;;;;10.67;4.13;;;;;;;15.59;100.00;98055.31;6192465;28;20764;-59
2023/10/09 13:42:27;;;;;;;17.40;5.63;;;;;;;15.43;100.00;98078.63;6188635;28;20237;-58
2023/10/09 13:45:30;;;;;;;12.17;6.27;;;;;;;15.31;100.00;98047.69;6198665;28;20639;-58
2023/10/09 13:48:37;;;;;;;13.10;5.33;;;;;;;15.09;100.00;98064.78;6194800;28;20331;-58
2023/10/09 13:51:46;;;;;;;11.93;5.97;;;;;;;14.89;100.00;98049.41;6190259;28;20339;-58
2023/10/09 13:54:49;;;;;;;12.77;6.53;;;;;;;14.79;100.00;98038.63;6197282;28;20240;-56
2023/10/09 13:57:51;;;;;;;16.63;5.60;;;;;;;14.73;100.00;98030.78;6187785;28;20607;-58
2023/10/09 14:00:56;;;;;;;11.63;6.37;;;;;;;14.55;100.00;98024.00;6170564;28;20612;-57
2023/10/09 14:04:00;;;;;;;16.60;6.70;;;;;;;14.52;100.00;98036.03;6191749;28;20267;-58
2023/10/09 14:07:05;;;;;;;9.73;5.50;;;;;;;14.40;100.00;98005.91;6191774;28;20701;-59
2023/10/09 14:10:17;;;;;;;12.97;5.57;;;;;;;14.50;100.00;98023.97;6179452;28;20245;-58
2023/10/09 14:13:25;;;;;;;11.70;5.60;;;;;;;14.46;100.00;98004.88;6183928;28;20320;-57
2023/10/09 14:16:28;;;;;;;15.10;6.10;;;;;;;14.45;100.00;98030.88;6193530;28;20239;-59
2023/10/09 14:19:33;;;;;;;15.93;6.30;;;;;;;14.41;100.00;98035.13;6185495;28;20733;-56
2023/10/09 14:22:38;;;;;;;14.67;6.70;;;;;;;14.37;100.00;98031.34;6190892;28;20276;-59
2023/10/09 14:25:40;;;;;;;15.60;7.30;;;;;;;14.34;100.00;98029.19;6192650;28;20239;-58
2023/10/09 14:28:45;;;;;;;17.77;7.27;;;;;;;14.26;100.00;98018.13;6188069;28;20228;-59
2023/10/09 14:31:59;;;;;;;19.03;7.10;;;;;;;14.28;100.00;98035.56;6189504;28;20868;-57
2023/10/09 14:35:02;;;;;;;14.27;6.90;;;;;;;14.26;100.00;98031.53;6182203;28;20724;-59
2023/10/09 14:38:11;;;;;;;18.03;7.47;;;;;;;14.27;100.00;98017.06;6186405;28;20233;-58
2023/10/09 14:41:13;;;;;;;16.57;7.83;;;;;;;14.25;100.00;97993.22;6198627;28;20236;-55
2023/10/09 14:44:16;;;;;;;12.07;6.97;;;;;;;14.20;100.00;98002.03;6188219;28;20312;-58
2023/10/09 14:47:18;;;;;;;15.93;7.93;;;;;;;14.23;100.00;97981.94;6195505;28;20228;-59
2023/10/09 14:50:24;;;;;;;12.33;7.57;;;;;;;14.26;100.00;98010.09;6191590;28;20225;-56
2023/10/09 14:53:29;;;;;;;13.87;7.13;;;;;;;14.18;100.00;98004.13;6182003;28;20696;-56
2023/10/09 14:56:33;;;;;;;11.90;6.73;;;;;;;14.14;100.00;98003.06;6195927;28;20232;-57
2023/10/09 14:59:35;;;;;;;16.90;7.20;;;;;;;13.97;100.00;97997.00;6185524;28;20708;-59
2023/10/09 15:02:38;;;;;;;13.93;7.73;;;;;;;14.13;100.00;98004.09;6190277;28;20232;-59
2023/10/09 15:05:42;;;;;;;12.17;6.93;;;;;;;14.15;100.00;98009.22;6196742;28;20224;-58
2023/10/09 15:08:45;;;;;;;18.20;6.97;;;;;;;14.15;100.00;97996.63;6189188;28;20328;-58
2023/10/09 15:11:51;;;;;;;18.47;7.07;;;;;;;14.25;100.00;98003.13;6193048;28;20711;-59
2023/10/09 15:14:56;;;;;;;16.37;6.37;;;;;;;14.28;100.00;97998.03;6189733;28;20253;-58
2023/10/09 15:17:59;;;;;;;13.23;6.40;;;;;;;14.26;100.00;97988.66;6199584;28;20814;-57
2023/10/09 15:21:01;;;;;;;9.87;5.70;;;;;;;14.16;100.00;97960.72;6196248;28;20921;-55
2023/10/09 15:24:05;;;;;;;15.67;6.00;;;;;;;14.27;100.00;97958.13;6187909;28;20259;-58
2023/10/09 15:27:09;;;;;;;12.90;6.77;;;;;;;14.26;100.00;97965.34;6195457;28;20753;-58
2023/10/09 15:30:16;;;;;;;13.97;6.27;;;;;;;14.22;100.00;97950.03;6191798;28;20325;-58
2023/10/09 15:33:20;;;;;;;12.67;6.43;;;;;;;14.24;100.00;97956.78;6187802;28;20220;-57
2023/10/09 15:36:25;;;;;;;14.93;6.80;;;;;;;14.19;100.00;97978.97;6195871;28;20232;-58
2023/10/09 15:39:27;;;;;;;14.63;6.57;;;;;;;14.08;100.00;97990.66;6196514;28;20229;-55
2023/10/09 15:42:29;;;;;;;13.43;6.37;;;;;;;14.01;100.00;97992.78;6189259;28;20312;-56